Forest River, ND

8:35 PM CDT on July 23, 2014 (GMT -0500)
Grafton Municipal (KGAF) Elev 823 ft | 48.40 °N, 97.37 °W | Change Station

Current weather conditions updated 40 minutes ago

Clear
Clear
72 °F
Feels Like 72 °F
N
0
Wind Variable Wind from North

Tomorrow is forecast to be Warmer than today. Late night thunderstorms tomorrow night.

Today
High -- | Low -- °F
--% Chance of Precip.
Yesterday
High -- | Low -- °F
Precip. -- in
5:54 AM 9:17 PM
Waning Crescent, 8% visible
Pressure 30.20 in
Visibility 10.0 miles
Clouds Clear
Dew Point 54 °F
Humidity 53%
Rainfall 0.00 in
Snow Depth Not available.
UV 1 out of 12
Pollen 7.00 out of 12
Air Quality Not available.
Flu Activity Not available.
METAR KGAF 240055Z AUTO 00000KT 10SM CLR 22/12 A3020 RMK AO2

More Conditions Fewer Conditions

Pressure 30.20 in
Visibility 10.0 miles
Clouds Clear
Dew Point 54 °F
Humidity 53%
Rainfall 0.00 in
Snow Depth Not available.
UV 1 out of 12
Pollen 7.00 out of 12
Air Quality Not available.
Flu Activity Not available.
METAR KGAF 240055Z AUTO 00000KT 10SM CLR 22/12 A3020 RMK AO2

More Conditions Fewer Conditions

10-Day Weather Forecast

Almanac

Astronomy

Jul. 23, 2014 Rise Set
Actual Time 5:54 AM CDT 9:17 PM CDT
Civil Twilight 5:15 AM CDT 9:55 PM CDT
Nautical Twilight 4:25 AM CDT 10:46 PM CDT
Astronomical Twilight 3:18 AM CDT 11:52 PM CDT
Moon 3:16 AM CDT (7/23) 6:45 PM CDT (7/23)
Length of Visible Light 16h 40m
Length of Day
15h 23m
Tomorrow will be 2m 22s shorter.
Waning Crescent, 8% of the Moon is Illuminated
Today
Waning Crescent
Jul 26
New
Aug 3
First Quarter
Aug 10
Full
Aug 17
Last Quarter

Today's Extremes

State Highs State Lows

Community

WunderPhotos

Upload Photos

1,736,843 photos uploaded!

Nearby

Snow Depth

Station Depth Elevation
No new snow has been reported.

Earthquake Activity

City Distance Mag. Time & Date
No recent earthquake activity has been reported nearby.
Minimum magnitude displayed is 2.5.

Coastal Water Temperatures

Place Temperature
No Stations Reporting

Nearby Weather Stations

Station Location Temp. Dew Point Humidity Wind Precip. Elev Updated Type
Hoople nd, Hoople, ND 69.1 °F 55 °F 62% NNW  at  1.0 mph 0.00 in / hr 870 ft 8:28 PM CDT Normal

Show More Stations Show Fewer Stations